ENBO

Bodø Airport

Airport
ICAO code
ENBO
IATA Code
BOO
Summary
ICAO Region
EUR
ICAO Territory
Location

Bodø, Nordland,

Serving
Bodø
Elevation
42 ft
Coordinates
67° 16' 6" N , 14° 21' 24" E
KCC
Metar
Observation
ENBO 272020Z 23033G45KT 9999 RA BKN020 OVC034 06/04 Q0998 TEMPO 23030KT
Station
Bodo Vi
Date/Time
2023-01-27 21:20:00
Wind direction
230°
Wind speed
33 kts
Lowest cloud amount
broken clouds
Temperature
6°C
Dew point
4°C
Humidity
86%
QNH
998 hPa
Weather condition
rain

Description

International airport serving Nordland region of northern Norway.

Climatology

Subpolar Oceanic climate (Köppen climate classification Cfc) - uniform precipitation distribution, temperatures are moderated by the proximity of the ocean and warm currents - cool summers and comparatively mild winters.

Runways

Designator Length Width Surface Rops
7/25 3394 45 CON Yes/Yes

Airport map

Aerial View

SKYbrary Partners:

Safety knowledge contributed by: